Time;durP1;ratioP1;P1;durP2;ratioP2;P2;SDS_P1;SDS_P2;PMS_P1;PMS_P2;Temp;Humidity;BMP_temperature;BMP_pressure;BME280_temperature;BME280_humidity;BME280_pressure;Samples;Min_cycle;Max_cycle;Signal;HPM_P1;HPM_P2
2022/05/19 04:22:36;;;;;;;12.00;6.97;;;;;;;16.90;74.21;100521.16;5109104;27;20158;-75
2022/05/19 04:25:03;;;;;;;7.97;4.18;;;;;;;16.85;73.80;100529.84;5109300;28;20040;-75
2022/05/19 04:27:30;;;;;;;6.93;5.00;;;;;;;16.84;73.87;100530.06;5105294;28;20044;-74
2022/05/19 04:29:56;;;;;;;7.00;5.43;;;;;;;16.78;75.13;100535.22;5101579;22;20142;-71
2022/05/19 04:32:21;;;;;;;5.78;4.82;;;;;;;16.81;74.68;100533.97;5068261;28;20039;-72
2022/05/19 04:34:47;;;;;;;6.75;4.25;;;;;;;16.77;76.85;100540.81;5068614;28;20033;-71
2022/05/19 04:37:13;;;;;;;7.03;5.18;;;;;;;16.77;75.15;100543.50;5068633;28;20033;-72
2022/05/19 04:39:39;;;;;;;5.10;4.47;;;;;;;16.84;74.91;100536.28;5068814;28;20542;-72
2022/05/19 04:42:09;;;;;;;5.95;4.32;;;;;;;16.86;73.99;100534.19;5068181;28;20029;-72
2022/05/19 04:44:35;;;;;;;5.72;4.18;;;;;;;16.92;74.57;100540.63;5067339;28;20113;-72
2022/05/19 04:47:00;;;;;;;6.82;4.82;;;;;;;16.86;75.85;100544.13;5068607;28;20021;-72
2022/05/19 04:49:26;;;;;;;7.50;4.75;;;;;;;16.79;77.13;100544.13;5068552;28;20447;-72
2022/05/19 04:51:51;;;;;;;8.93;5.07;;;;;;;16.81;76.41;100553.63;5068017;28;20485;-72
2022/05/19 04:54:17;;;;;;;7.28;5.43;;;;;;;16.74;78.39;100554.66;5068358;28;20043;-72
2022/05/19 04:56:43;;;;;;;6.47;5.00;;;;;;;16.77;78.09;100554.28;5068558;28;20048;-71
2022/05/19 04:59:14;;;;;;;5.97;4.10;;;;;;;16.73;79.44;100556.53;5068207;28;20082;-72
2022/05/19 05:01:45;;;;;;;4.65;4.00;;;;;;;16.69;79.89;100557.09;5068016;28;20439;-72
2022/05/19 05:04:11;;;;;;;6.75;4.68;;;;;;;16.75;80.03;100557.16;5068168;28;20115;-73
2022/05/19 05:06:37;;;;;;;8.63;5.72;;;;;;;16.74;79.37;100552.81;5068179;28;20037;-72
2022/05/19 05:09:04;;;;;;;6.22;4.20;;;;;;;16.74;81.40;100560.06;5068206;28;20606;-72
2022/05/19 05:11:30;;;;;;;5.97;4.30;;;;;;;16.74;81.25;100550.13;5067843;28;20041;-72
2022/05/19 05:13:55;;;;;;;9.45;4.57;;;;;;;16.79;81.06;100552.19;5067828;28;20044;-72
2022/05/19 05:16:21;;;;;;;6.72;4.35;;;;;;;16.90;81.64;100554.28;5068028;28;20051;-71
2022/05/19 05:18:46;;;;;;;6.00;4.63;;;;;;;16.98;80.86;100570.22;5068011;28;20047;-72
2022/05/19 05:21:13;;;;;;;7.35;5.03;;;;;;;17.04;79.28;100568.56;5066441;28;20037;-72
2022/05/19 05:23:39;;;;;;;8.90;5.60;;;;;;;17.13;78.33;100577.22;5067505;28;20107;-72
2022/05/19 05:26:06;;;;;;;7.05;5.20;;;;;;;17.24;78.46;100573.91;5066529;28;20520;-72
2022/05/19 05:28:33;;;;;;;6.25;4.75;;;;;;;17.25;79.23;100568.31;5067565;28;20033;-72
2022/05/19 05:30:58;;;;;;;7.22;5.35;;;;;;;17.31;79.06;100567.50;5067418;28;20033;-72
2022/05/19 05:33:24;;;;;;;8.85;5.57;;;;;;;17.36;77.42;100577.63;5055851;28;20090;-72
2022/05/19 05:35:50;;;;;;;8.82;4.72;;;;;;;17.42;77.26;100574.09;5054391;28;20051;-75
2022/05/19 05:38:15;;;;;;;6.45;4.00;;;;;;;17.50;74.73;100573.88;5054625;28;20059;-75
2022/05/19 05:40:41;;;;;;;5.45;4.25;;;;;;;17.61;75.23;100570.53;5054305;28;20033;-74
2022/05/19 05:43:09;;;;;;;5.63;3.97;;;;;;;17.73;74.73;100573.41;5052839;28;20043;-75
2022/05/19 05:45:34;;;;;;;;;;;;;;;17.81;73.05;100570.50;5054844;28;20040;-76
2022/05/19 05:48:00;;;;;;;8.23;4.22;;;;;;;17.88;71.42;100582.09;5054320;28;19912;-76
2022/05/19 05:50:26;;;;;;;4.40;3.88;;;;;;;17.96;70.71;100578.31;5053133;28;20135;-76
2022/05/19 05:52:51;;;;;;;5.65;3.70;;;;;;;18.04;72.20;100583.47;5052987;28;20406;-77
2022/05/19 05:55:17;;;;;;;5.65;3.70;;;;;;;18.11;71.19;100581.56;5053056;28;20029;-77
2022/05/19 05:57:43;;;;;;;5.60;3.60;;;;;;;18.18;70.82;100584.22;5058904;28;20092;-77
2022/05/19 06:00:11;;;;;;;6.05;3.63;;;;;;;18.28;67.85;100589.19;5057549;28;20037;-77
2022/05/19 06:02:39;;;;;;;8.13;4.38;;;;;;;18.36;69.86;100599.69;5053508;28;20474;-76
2022/05/19 06:05:05;;;;;;;6.10;3.95;;;;;;;18.45;70.18;100601.09;5053612;28;20486;-74
2022/05/19 06:07:31;;;;;;;6.28;4.03;;;;;;;18.53;70.65;100600.03;5053909;28;20044;-75
2022/05/19 06:09:57;;;;;;;12.35;6.68;;;;;;;18.62;70.82;100599.53;5053441;28;20032;-75
2022/05/19 06:12:23;;;;;;;8.35;4.18;;;;;;;18.66;69.71;100608.91;5051571;28;20060;-75
2022/05/19 06:14:50;;;;;;;;;;;;;;;18.75;67.10;100605.94;5053159;28;20479;-74
2022/05/19 06:17:16;;;;;;;7.20;3.92;;;;;;;18.81;68.78;100607.75;5053542;28;19979;-75
2022/05/19 06:19:41;;;;;;;5.65;3.70;;;;;;;18.85;63.82;100600.91;5052260;28;20037;-75
2022/05/19 06:22:07;;;;;;;5.80;3.50;;;;;;;18.91;65.54;100600.84;5052820;28;20116;-75
2022/05/19 06:24:34;;;;;;;8.07;4.43;;;;;;;19.01;67.62;100608.44;5052955;28;20083;-75
2022/05/19 06:26:59;;;;;;;4.97;3.58;;;;;;;19.06;68.99;100608.63;5053445;28;20843;-75
2022/05/19 06:29:25;;;;;;;4.72;3.63;;;;;;;19.16;69.03;100603.53;5053507;28;20116;-75
2022/05/19 06:31:50;;;;;;;6.82;3.78;;;;;;;19.17;68.03;100604.34;5052714;28;20041;-75
2022/05/19 06:34:16;;;;;;;6.85;3.95;;;;;;;19.30;66.41;100614.22;5053338;28;20052;-77
2022/05/19 06:36:43;;;;;;;7.25;3.90;;;;;;;19.39;67.33;100610.19;5053702;28;20017;-76
2022/05/19 06:39:09;;;;;;;8.70;4.07;;;;;;;19.48;66.27;100611.56;5054135;28;20425;-76
2022/05/19 06:44:20;;;;;;;7.13;3.70;;;;;;;19.71;64.54;100608.25;5052279;28;20041;-77
2022/05/19 06:46:46;;;;;;;5.38;3.60;;;;;;;19.78;65.30;100606.28;5052242;28;20086;-77
2022/05/19 06:49:12;;;;;;;8.98;3.10;;;;;;;19.88;62.96;100603.88;5053046;28;20044;-77
2022/05/19 06:51:37;;;;;;;6.75;3.20;;;;;;;19.93;63.39;100614.84;5053085;28;20033;-77
2022/05/19 06:54:03;;;;;;;6.90;3.50;;;;;;;20.06;61.93;100613.88;5051018;28;20044;-75
2022/05/19 06:56:29;;;;;;;6.65;3.28;;;;;;;20.23;60.93;100614.09;5053137;28;20128;-77
2022/05/19 06:58:56;;;;;;;5.20;3.58;;;;;;;20.29;61.56;100626.69;5052849;28;20773;-77
2022/05/19 07:01:22;;;;;;;6.53;3.85;;;;;;;20.38;61.06;100632.59;5052887;28;20086;-75
2022/05/19 07:03:49;;;;;;;7.78;4.18;;;;;;;20.47;60.70;100632.06;5051844;28;20482;-74
2022/05/19 07:06:15;;;;;;;4.78;3.50;;;;;;;20.54;60.79;100635.53;5052626;28;20078;-76
2022/05/19 07:08:41;;;;;;;5.47;3.35;;;;;;;20.58;61.05;100644.00;5052493;28;20563;-75
2022/05/19 07:11:24;;;;;;;6.10;3.63;;;;;;;20.72;60.84;100639.25;5052453;28;20033;-75
2022/05/19 07:13:58;;;;;;;5.25;3.60;;;;;;;20.81;60.27;100638.69;5052175;28;20036;-75
2022/05/19 07:16:24;;;;;;;7.78;3.58;;;;;;;20.87;60.64;100626.13;5051739;28;20036;-76
2022/05/19 07:18:50;;;;;;;7.78;4.10;;;;;;;20.98;60.97;100630.72;5052260;28;20644;-74
2022/05/19 07:21:18;;;;;;;10.30;4.32;;;;;;;21.08;59.92;100641.00;5052344;28;20112;-76
2022/05/19 07:23:46;;;;;;;8.25;3.85;;;;;;;21.17;60.04;100631.47;5051416;28;20040;-76
2022/05/19 07:26:12;;;;;;;5.95;3.42;;;;;;;21.37;58.27;100634.69;5052064;28;20040;-75
2022/05/19 07:28:38;;;;;;;5.75;3.35;;;;;;;21.53;57.75;100633.16;5052318;28;20082;-75
2022/05/19 07:31:03;;;;;;;6.43;3.00;;;;;;;21.58;57.05;100633.28;5052819;28;20473;-78
2022/05/19 07:33:29;;;;;;;5.47;3.28;;;;;;;21.65;57.16;100633.16;5054004;28;20043;-78
2022/05/19 07:36:00;;;;;;;4.75;3.00;;;;;;;21.81;56.17;100637.03;5053403;28;20033;-77
2022/05/19 07:38:26;;;;;;;4.00;2.75;;;;;;;21.92;57.37;100634.31;5055877;28;20387;-78
2022/05/19 07:40:54;;;;;;;7.60;3.47;;;;;;;21.96;56.50;100637.34;5060105;28;20041;-78
2022/05/19 07:43:35;;;;;;;4.03;3.40;;;;;;;22.13;56.39;100632.88;5054322;28;20079;-78
2022/05/19 07:46:01;;;;;;;4.57;3.05;;;;;;;22.24;55.56;100636.63;5051543;28;20037;-78
2022/05/19 07:48:26;;;;;;;4.90;3.83;;;;;;;22.37;54.33;100630.94;5057125;28;20060;-79
2022/05/19 07:50:53;;;;;;;6.53;3.13;;;;;;;22.44;55.77;100626.19;5044088;28;20052;-80
2022/05/19 07:53:19;;;;;;;5.35;3.30;;;;;;;22.60;56.94;100629.16;5059400;28;20043;-76
2022/05/19 07:55:45;;;;;;;15.48;3.67;;;;;;;22.63;55.62;100620.56;5063747;28;20041;-78
2022/05/19 07:58:10;;;;;;;6.05;3.63;;;;;;;22.82;55.80;100626.56;5052347;28;20393;-77
2022/05/19 08:00:36;;;;;;;6.32;3.72;;;;;;;22.85;55.95;100624.19;5063422;28;20048;-78
2022/05/19 08:03:01;;;;;;;4.88;3.50;;;;;;;22.96;54.86;100620.63;5054897;28;20053;-78
2022/05/19 08:05:27;;;;;;;7.45;3.53;;;;;;;23.11;56.33;100624.66;5065053;28;20028;-78
2022/05/19 08:07:52;;;;;;;6.70;3.63;;;;;;;23.15;54.80;100623.09;5070994;28;20100;-77
2022/05/19 08:10:21;;;;;;;6.68;3.63;;;;;;;23.27;54.29;100621.09;5053839;28;20048;-77
2022/05/19 08:15:38;;;;;;;6.97;3.38;;;;;;;23.52;55.47;100617.94;5051799;28;20037;-77
2022/05/19 08:18:13;;;;;;;5.70;3.85;;;;;;;23.69;55.34;100620.69;5050265;28;20048;-77
2022/05/19 08:20:45;;;;;;;7.30;4.05;;;;;;;23.80;52.30;100614.31;5049964;28;20083;-78
2022/05/19 08:23:16;;;;;;;6.60;3.25;;;;;;;23.97;51.80;100622.41;5051270;28;20059;-76
2022/05/19 08:25:43;;;;;;;4.95;3.63;;;;;;;24.03;51.65;100624.94;5050654;28;20111;-77
2022/05/19 08:28:09;;;;;;;7.03;4.03;;;;;;;24.20;51.35;100624.06;5051782;28;20037;-76
2022/05/19 08:30:35;;;;;;;6.40;3.55;;;;;;;24.42;52.17;100624.88;5051458;28;20033;-76
2022/05/19 08:33:04;;;;;;;6.57;4.07;;;;;;;24.57;51.89;100627.75;5049932;28;20036;-77
2022/05/19 08:35:30;;;;;;;6.20;3.60;;;;;;;24.70;52.32;100625.69;5033438;28;20041;-76
2022/05/19 08:37:55;;;;;;;4.57;3.85;;;;;;;24.65;50.73;100623.78;5051233;28;20060;-77
2022/05/19 08:40:22;;;;;;;6.28;3.55;;;;;;;24.77;51.65;100627.13;5051119;28;20444;-78
2022/05/19 08:42:53;;;;;;;4.47;3.38;;;;;;;24.88;49.72;100628.88;5049901;28;20478;-77
2022/05/19 08:45:24;;;;;;;4.97;3.63;;;;;;;25.12;50.95;100634.03;5033496;28;20044;-77
2022/05/19 08:48:01;;;;;;;8.57;3.63;;;;;;;25.22;49.13;100633.28;5050087;28;20163;-77
2022/05/19 08:50:33;;;;;;;5.20;3.60;;;;;;;25.38;50.40;100633.13;5051119;28;20033;-77
2022/05/19 08:52:59;;;;;;;4.88;3.67;;;;;;;25.50;48.57;100621.22;5051090;28;20119;-76
2022/05/19 08:55:24;;;;;;;5.72;3.60;;;;;;;25.71;48.47;100625.72;5051320;28;20438;-78
2022/05/19 08:58:02;;;;;;;4.38;3.40;;;;;;;25.74;48.25;100616.19;5050002;28;20056;-77
2022/05/19 09:00:52;;;;;;;5.28;3.28;;;;;;;26.05;47.20;100620.72;5051061;28;20041;-77
2022/05/19 09:03:33;;;;;;;6.22;3.78;;;;;;;26.24;46.67;100619.16;5050936;28;20041;-77
2022/05/19 09:06:25;;;;;;;8.73;4.13;;;;;;;26.20;46.41;100615.31;5049931;28;20128;-77
2022/05/19 09:08:55;;;;;;;6.30;4.00;;;;;;;26.19;46.79;100615.56;5052693;28;20113;-77
2022/05/19 09:11:26;;;;;;;4.00;3.60;;;;;;;26.29;47.13;100610.16;5054468;28;20029;-77
2022/05/19 09:14:16;;;;;;;7.50;3.58;;;;;;;26.49;46.22;100612.16;5054814;28;20576;-77
2022/05/19 09:16:42;;;;;;;4.13;3.50;;;;;;;26.49;46.50;100598.50;5055717;28;20059;-78
2022/05/19 09:19:33;;;;;;;9.05;3.80;;;;;;;26.48;47.33;100600.41;5054904;28;20128;-77
2022/05/19 09:22:10;;;;;;;7.47;3.80;;;;;;;26.75;46.85;100599.34;5054059;28;20040;-78
2022/05/19 09:24:36;;;;;;;8.88;3.55;;;;;;;26.75;48.00;100600.16;5055389;28;20129;-78
2022/05/19 09:27:03;;;;;;;6.30;3.60;;;;;;;26.81;46.89;100602.91;5055345;28;20029;-77
2022/05/19 09:29:44;;;;;;;;;;;;;;;27.20;46.32;100600.47;5057736;28;20095;-77
2022/05/19 09:32:18;;;;;;;6.10;3.78;;;;;;;27.22;46.28;100601.00;5072703;28;19917;-77
2022/05/19 09:34:52;;;;;;;6.25;3.90;;;;;;;27.58;45.20;100599.00;5057622;28;20071;-79
2022/05/19 09:37:29;;;;;;;4.20;3.53;;;;;;;27.42;44.65;100594.69;5063786;28;20036;-79
2022/05/19 09:40:10;;;;;;;4.05;3.65;;;;;;;27.83;45.24;100589.94;5062097;28;20037;-79
2022/05/19 09:42:56;;;;;;;6.07;3.90;;;;;;;28.06;44.38;100583.00;5059477;28;20422;-78
2022/05/19 09:45:27;;;;;;;4.10;3.60;;;;;;;28.31;46.58;100590.31;5058637;28;20036;-79
2022/05/19 09:48:08;;;;;;;4.38;3.60;;;;;;;28.56;43.24;100581.09;5058853;28;20359;-79
2022/05/19 09:50:46;;;;;;;8.85;3.83;;;;;;;28.71;45.49;100572.78;5058017;28;20040;-77
2022/05/19 09:53:27;;;;;;;7.22;4.05;;;;;;;29.00;45.52;100569.25;5053724;28;20029;-77
2022/05/19 09:55:56;;;;;;;8.43;3.60;;;;;;;29.24;42.49;100574.81;5053780;28;20025;-77
2022/05/19 09:58:24;;;;;;;6.10;3.33;;;;;;;29.57;38.81;100573.09;5053171;28;20028;-77
2022/05/19 10:00:53;;;;;;;5.25;3.70;;;;;;;29.90;43.68;100574.06;5052410;28;20147;-77
2022/05/19 10:03:46;;;;;;;7.15;4.25;;;;;;;29.97;39.42;100571.78;5053480;28;20041;-78
2022/05/19 10:06:20;;;;;;;8.70;4.25;;;;;;;30.25;37.60;100570.88;5056334;28;20033;-78
2022/05/19 10:08:47;;;;;;;5.30;3.70;;;;;;;30.40;41.15;100577.28;5059649;28;20032;-78
2022/05/19 10:11:12;;;;;;;6.68;3.50;;;;;;;30.33;38.13;100566.66;5058161;28;20029;-78
2022/05/19 10:13:49;;;;;;;7.40;3.58;;;;;;;30.78;37.99;100556.09;5058991;28;20132;-78
2022/05/19 10:16:38;;;;;;;5.97;3.42;;;;;;;30.92;37.01;100562.44;5057836;28;20497;-78
2022/05/19 10:19:20;;;;;;;5.15;3.22;;;;;;;30.56;37.27;100566.84;5055645;28;20487;-78
2022/05/19 10:22:14;;;;;;;5.45;3.22;;;;;;;30.62;38.50;100562.91;5059573;28;20088;-78
2022/05/19 10:25:11;;;;;;;6.28;3.50;;;;;;;30.78;37.12;100553.34;5058294;28;20490;-77
2022/05/19 10:31:05;;;;;;;7.20;3.58;;;;;;;31.40;37.07;100556.66;5058997;28;20036;-78
2022/05/19 10:34:04;;;;;;;7.03;3.42;;;;;;;31.77;36.33;100552.06;5055077;28;20033;-78
2022/05/19 10:37:06;;;;;;;7.63;3.58;;;;;;;32.10;37.41;100544.47;5055401;28;20040;-77
2022/05/19 10:39:32;;;;;;;7.40;3.58;;;;;;;32.17;35.13;100544.88;5056196;28;20478;-79
2022/05/19 10:42:09;;;;;;;5.35;3.95;;;;;;;32.28;36.99;100532.50;5055901;28;20025;-77
2022/05/19 10:44:58;;;;;;;6.40;3.50;;;;;;;32.84;36.06;100522.84;5054877;28;20466;-77
2022/05/19 10:47:52;;;;;;;7.00;3.38;;;;;;;32.97;34.86;100517.59;5054012;28;20505;-76
2022/05/19 10:50:27;;;;;;;5.32;3.58;;;;;;;33.27;34.33;100530.56;5054749;28;20032;-77
2022/05/19 10:53:14;;;;;;;5.50;3.40;;;;;;;33.77;34.41;100526.69;5053378;28;20489;-78
2022/05/19 10:56:04;;;;;;;5.78;3.75;;;;;;;33.91;34.66;100521.88;5054961;28;20445;-79
2022/05/19 10:58:56;;;;;;;7.75;3.20;;;;;;;34.25;32.95;100524.66;5055494;28;20032;-78
2022/05/19 11:01:27;;;;;;;6.15;3.30;;;;;;;34.52;32.64;100525.50;5054667;28;20036;-78
2022/05/19 11:04:01;;;;;;;4.75;3.03;;;;;;;34.85;33.53;100514.69;5052983;28;20405;-79
2022/05/19 11:06:51;;;;;;;3.97;3.00;;;;;;;35.05;32.53;100513.19;5060075;28;20063;-77
2022/05/19 11:09:50;;;;;;;4.63;3.08;;;;;;;35.70;30.67;100505.56;5060118;28;20029;-78
2022/05/19 11:12:43;;;;;;;3.83;2.90;;;;;;;35.38;32.02;100509.78;5057851;28;20033;-78
2022/05/19 11:15:43;;;;;;;3.70;3.10;;;;;;;35.32;27.52;100504.44;5054916;28;20482;-78
2022/05/19 11:18:42;;;;;;;4.88;2.90;;;;;;;35.25;29.63;100503.31;5046100;28;20088;-78
2022/05/19 11:21:21;;;;;;;7.03;2.78;;;;;;;35.39;28.75;100495.59;5056019;28;20040;-78
2022/05/19 11:24:00;;;;;;;4.78;2.85;;;;;;;35.34;30.39;100496.63;5039021;28;20083;-78
2022/05/19 11:26:42;;;;;;;4.68;3.10;;;;;;;35.93;29.43;100486.66;5038783;28;20039;-78
2022/05/19 11:29:13;;;;;;;6.78;3.20;;;;;;;35.26;29.95;100494.69;5052388;28;20029;-75
2022/05/19 11:32:20;;;;;;;6.50;3.47;;;;;;;35.73;30.33;100482.72;5051178;28;20036;-76
2022/05/19 11:35:12;;;;;;;5.60;3.10;;;;;;;35.38;27.87;100493.19;5046272;28;20052;-77
2022/05/19 11:37:41;;;;;;;4.82;3.08;;;;;;;35.54;27.54;100483.19;5046238;28;20045;-78
2022/05/19 11:40:25;;;;;;;3.50;2.75;;;;;;;35.87;26.53;100484.09;5051996;28;20033;-76
2022/05/19 11:43:16;;;;;;;4.47;3.10;;;;;;;35.95;26.94;100476.09;5052489;28;20095;-77
2022/05/19 11:45:58;;;;;;;6.97;3.28;;;;;;;35.74;28.46;100474.09;5050683;28;20033;-76
2022/05/19 11:55:19;;;;;;;5.35;3.10;;;;;;;36.58;26.85;100480.41;4994870;28;20049;-76
2022/05/19 11:58:09;;;;;;;6.82;2.90;;;;;;;37.16;25.77;100470.09;5010506;28;20112;-76
2022/05/19 12:00:58;;;;;;;9.45;3.03;;;;;;;36.58;28.40;100480.41;5045838;28;20053;-76
2022/05/19 12:03:51;;;;;;;4.53;3.10;;;;;;;35.73;27.10;100472.44;5053090;28;20044;-76
2022/05/19 12:06:20;;;;;;;4.53;2.67;;;;;;;35.28;27.87;100466.69;5052140;28;20128;-75
2022/05/19 12:09:04;;;;;;;5.70;3.22;;;;;;;35.11;28.16;100475.88;5053092;28;20033;-76
2022/05/19 12:11:50;;;;;;;8.15;3.45;;;;;;;35.38;27.81;100465.47;5052899;28;20103;-76
2022/05/19 12:14:25;;;;;;;;;;;;;;;35.67;29.35;100470.22;5052935;28;20072;-76
2022/05/19 12:16:59;;;;;;;4.85;3.85;;;;;;;36.20;28.80;100477.81;5034392;28;19913;-76
2022/05/19 12:19:34;;;;;;;4.50;2.97;;;;;;;35.95;25.57;100473.31;5052924;28;20139;-76
2022/05/19 12:22:10;;;;;;;4.40;3.13;;;;;;;36.09;25.45;100480.19;5051192;28;20036;-76
2022/05/19 12:25:00;;;;;;;4.32;2.92;;;;;;;36.50;28.48;100466.63;5051588;28;20379;-76
2022/05/19 12:27:44;;;;;;;5.25;2.70;;;;;;;35.82;26.35;100462.13;5051661;28;20040;-76
2022/05/19 12:33:22;;;;;;;4.20;2.97;;;;;;;36.16;25.91;100465.78;5051362;28;20092;-73
2022/05/19 12:35:52;;;;;;;7.18;3.22;;;;;;;36.51;24.62;100462.69;5051676;28;20044;-75
2022/05/19 12:38:38;;;;;;;5.63;3.10;;;;;;;36.81;26.63;100457.78;5051425;28;20060;-76
2022/05/19 12:41:09;;;;;;;8.50;3.10;;;;;;;37.42;24.33;100455.88;5051493;28;20047;-75
2022/05/19 12:43:46;;;;;;;5.43;3.03;;;;;;;37.00;25.80;100454.50;5052737;28;20383;-78
2022/05/19 12:46:33;;;;;;;5.90;3.17;;;;;;;36.99;24.23;100458.44;5055464;28;20375;-76
2022/05/19 12:49:26;;;;;;;4.82;2.90;;;;;;;36.75;24.00;100464.72;5055289;28;20032;-76
2022/05/19 12:52:21;;;;;;;5.18;3.13;;;;;;;36.62;24.57;100463.88;5047145;28;20053;-77
2022/05/19 12:55:11;;;;;;;4.55;3.00;;;;;;;36.64;24.17;100456.03;5053085;28;20037;-76
2022/05/19 12:57:37;;;;;;;5.47;2.83;;;;;;;36.05;25.20;100459.03;5053984;28;20496;-76
2022/05/19 13:00:20;;;;;;;7.37;3.20;;;;;;;36.54;24.48;100456.47;5055154;28;20044;-76
2022/05/19 13:03:04;;;;;;;7.55;3.03;;;;;;;36.68;25.01;100456.97;5054813;28;20040;-75
2022/05/19 13:05:54;;;;;;;4.85;3.28;;;;;;;36.44;24.64;100451.34;5055235;28;20071;-76
2022/05/19 13:08:49;;;;;;;7.70;3.20;;;;;;;36.73;24.54;100447.63;5055218;28;20108;-76
2022/05/19 13:11:19;;;;;;;7.38;3.60;;;;;;;36.61;24.74;100453.94;5054796;28;20036;-72
2022/05/19 13:13:55;;;;;;;8.18;3.05;;;;;;;36.71;26.00;100458.22;5054666;28;20147;-72
2022/05/19 13:16:32;;;;;;;4.28;2.95;;;;;;;36.05;26.04;100456.25;5054796;28;20108;-72
2022/05/19 13:19:12;;;;;;;7.68;3.25;;;;;;;35.42;26.79;100453.44;5054802;28;20465;-71
2022/05/19 13:21:46;;;;;;;6.07;3.38;;;;;;;35.18;26.87;100462.31;5053300;28;20056;-71
2022/05/19 13:24:15;;;;;;;6.93;3.33;;;;;;;34.35;28.17;100461.88;5054861;28;20119;-71
2022/05/19 13:26:43;;;;;;;5.35;3.60;;;;;;;34.28;28.95;100456.84;5054599;28;20036;-71
2022/05/19 13:32:02;;;;;;;8.50;3.50;;;;;;;33.78;28.43;100448.19;5053916;28;20033;-71
2022/05/19 13:34:48;;;;;;;9.00;3.60;;;;;;;33.38;29.97;100445.50;5054668;28;20041;-71
2022/05/19 13:37:28;;;;;;;6.28;3.83;;;;;;;33.51;30.22;100446.53;5054380;28;20029;-71
2022/05/19 13:40:31;;;;;;;6.25;3.10;;;;;;;33.56;28.62;100436.16;5053530;28;20406;-71
2022/05/19 13:43:10;;;;;;;6.03;3.75;;;;;;;33.73;29.31;100430.66;5053424;28;20466;-71
2022/05/19 13:45:46;;;;;;;6.78;3.60;;;;;;;33.32;29.27;100435.75;5054470;28;20450;-71
2022/05/19 13:48:50;;;;;;;6.20;3.35;;;;;;;32.81;29.06;100431.66;5054105;28;20048;-72
2022/05/19 13:51:31;;;;;;;7.75;3.58;;;;;;;32.74;29.54;100420.28;5053940;28;20048;-72
2022/05/19 13:53:59;;;;;;;7.55;3.53;;;;;;;32.75;31.65;100422.72;5053482;28;20033;-72
2022/05/19 13:56:43;;;;;;;6.60;3.80;;;;;;;32.73;29.81;100419.44;5054010;28;20444;-72
2022/05/19 13:59:11;;;;;;;7.78;3.17;;;;;;;32.73;31.50;100408.41;5054003;28;20099;-72
2022/05/19 14:01:52;;;;;;;5.85;3.50;;;;;;;32.72;30.11;100398.53;5053718;28;20618;-71
2022/05/19 14:04:20;;;;;;;8.15;3.38;;;;;;;32.66;29.58;100403.34;5053999;28;20036;-71
2022/05/19 14:06:47;;;;;;;6.43;3.30;;;;;;;32.59;31.19;100394.72;5053823;28;20116;-72
2022/05/19 14:09:48;;;;;;;5.20;3.85;;;;;;;32.62;31.40;100394.13;5053703;28;20036;-72
2022/05/19 14:12:13;;;;;;;8.18;3.95;;;;;;;32.82;31.47;100389.97;5053187;28;20494;-72
2022/05/19 14:14:47;;;;;;;6.25;3.42;;;;;;;32.74;31.71;100387.19;5053585;28;20048;-72
2022/05/19 14:17:13;;;;;;;4.75;3.60;;;;;;;32.47;31.60;100380.72;5060020;28;20090;-71
2022/05/19 14:19:41;;;;;;;6.75;3.85;;;;;;;32.51;31.79;100384.47;5062381;28;20036;-71
2022/05/19 14:22:12;;;;;;;5.03;3.58;;;;;;;32.73;32.37;100385.53;5059335;28;20021;-71
2022/05/19 14:24:39;;;;;;;7.30;3.90;;;;;;;32.52;30.60;100377.84;5067883;28;20047;-71
2022/05/19 14:27:05;;;;;;;5.65;3.70;;;;;;;32.62;31.78;100385.84;5073609;28;20033;-71
2022/05/19 14:29:41;;;;;;;9.98;3.97;;;;;;;32.56;32.09;100370.56;5073474;28;20032;-71
2022/05/19 14:32:16;;;;;;;9.23;3.83;;;;;;;32.65;32.08;100370.59;5072993;28;20060;-77
2022/05/19 14:34:42;;;;;;;6.90;3.65;;;;;;;32.54;32.15;100361.81;5073423;28;20721;-76
2022/05/19 14:37:16;;;;;;;4.97;3.72;;;;;;;32.60;32.64;100366.06;5073490;28;20024;-76
2022/05/19 14:43:04;;;;;;;9.18;4.32;;;;;;;32.51;32.35;100359.66;5073665;28;20078;-73
2022/05/19 14:43:05;;;;;;;12.75;4.38;;;;;;;32.17;32.54;100353.94;5072735;28;20121;-75
2022/05/19 14:46:01;;;;;;;5.13;3.75;;;;;;;32.23;31.71;100345.25;5073205;28;20049;-75
2022/05/19 14:48:39;;;;;;;8.90;3.78;;;;;;;32.26;31.06;100338.28;5060172;28;20047;-76
2022/05/19 14:51:13;;;;;;;8.40;3.92;;;;;;;32.19;31.09;100329.66;5073208;28;20433;-76
2022/05/19 14:53:43;;;;;;;6.88;4.00;;;;;;;32.32;31.84;100325.97;5073018;28;20032;-76
2022/05/19 14:56:15;;;;;;;5.63;4.22;;;;;;;32.23;32.69;100334.22;5072934;28;20040;-75
2022/05/19 14:58:52;;;;;;;5.78;3.38;;;;;;;32.37;32.28;100334.16;5072989;28;20533;-76
2022/05/19 15:01:18;;;;;;;6.05;3.67;;;;;;;32.52;32.77;100335.69;5072885;28;20029;-76
2022/05/19 15:03:44;;;;;;;8.43;4.10;;;;;;;32.47;31.77;100333.06;5072687;28;20029;-74
2022/05/19 15:06:10;;;;;;;8.70;4.20;;;;;;;32.25;31.48;100339.41;5072045;28;20043;-76
2022/05/19 15:08:35;;;;;;;10.27;4.40;;;;;;;32.02;31.87;100328.44;5072761;28;20417;-75
2022/05/19 15:11:01;;;;;;;7.33;4.00;;;;;;;31.94;31.65;100331.91;5071248;28;20497;-75
2022/05/19 15:13:27;;;;;;;6.93;4.05;;;;;;;31.93;33.09;100335.81;5072165;28;20041;-76
2022/05/19 15:15:53;;;;;;;9.60;3.90;;;;;;;31.93;33.09;100340.50;5072632;28;20047;-75
2022/05/19 15:18:19;;;;;;;8.93;5.90;;;;;;;31.96;33.21;100334.38;5072436;28;20032;-76
2022/05/19 15:20:46;;;;;;;7.70;3.85;;;;;;;32.03;33.33;100332.81;5072348;28;20048;-75
2022/05/19 15:23:14;;;;;;;5.70;4.00;;;;;;;32.08;33.89;100338.19;5072057;28;20115;-75
2022/05/19 15:25:40;;;;;;;7.10;3.97;;;;;;;31.99;32.59;100326.28;5072279;28;20032;-76
2022/05/19 15:28:06;;;;;;;6.53;3.70;;;;;;;32.05;32.75;100332.47;5072141;28;20109;-77
2022/05/19 15:30:35;;;;;;;9.93;4.00;;;;;;;32.02;34.44;100339.44;5071892;28;20037;-79
2022/05/19 15:33:02;;;;;;;8.35;3.45;;;;;;;31.85;35.38;100342.06;5072080;28;20064;-74
2022/05/19 15:35:29;;;;;;;5.97;3.72;;;;;;;31.90;35.57;100343.91;5071978;28;20095;-74
2022/05/19 15:37:55;;;;;;;6.03;4.18;;;;;;;31.89;35.92;100351.34;5072035;28;20028;-75
2022/05/19 15:40:25;;;;;;;7.50;4.10;;;;;;;31.67;35.71;100359.53;5071740;28;20046;-75
2022/05/19 15:42:51;;;;;;;10.05;3.60;;;;;;;31.75;35.61;100359.59;5070364;28;20058;-75
2022/05/19 15:45:17;;;;;;;6.10;4.20;;;;;;;31.72;36.03;100362.19;5071978;28;20020;-75
2022/05/19 15:47:50;;;;;;;8.50;4.13;;;;;;;31.75;35.87;100365.13;5072107;28;20075;-75
2022/05/19 15:50:19;;;;;;;5.13;3.70;;;;;;;31.72;36.48;100373.19;5071853;28;20032;-75
2022/05/19 15:52:47;;;;;;;4.82;3.28;;;;;;;31.64;35.37;100383.00;5071585;28;20082;-75
2022/05/19 15:55:15;;;;;;;7.28;3.70;;;;;;;31.42;35.73;100383.75;5072402;28;20049;-74
2022/05/19 15:57:41;;;;;;;7.45;3.78;;;;;;;31.37;35.14;100394.09;5071701;28;20045;-74
2022/05/19 16:00:08;;;;;;;5.70;3.72;;;;;;;31.29;35.96;100392.88;5070496;28;20047;-76
2022/05/19 16:02:39;;;;;;;9.50;3.25;;;;;;;31.28;36.30;100397.56;5071520;28;20189;-75
2022/05/19 16:05:10;;;;;;;8.55;3.78;;;;;;;31.15;36.85;100400.28;5073880;28;20045;-77
2022/05/19 16:07:36;;;;;;;5.90;4.20;;;;;;;30.81;37.99;100401.50;5074428;28;20064;-78
2022/05/19 16:10:04;;;;;;;5.80;3.72;;;;;;;30.79;37.48;100401.00;5073776;28;20044;-78
2022/05/19 16:12:31;;;;;;;6.45;4.32;;;;;;;30.67;38.67;100401.50;5071840;28;20053;-75
2022/05/19 16:14:58;;;;;;;5.80;3.95;;;;;;;30.47;39.22;100410.09;5074013;28;20040;-78
2022/05/19 16:17:24;;;;;;;9.55;4.47;;;;;;;30.40;39.69;100409.66;5072524;28;20032;-77
2022/05/19 16:19:50;;;;;;;8.40;4.20;;;;;;;30.30;39.51;100418.88;5071115;28;20482;-77
2022/05/19 16:22:29;;;;;;;9.15;4.10;;;;;;;30.11;38.35;100416.16;5074808;28;20064;-77
2022/05/19 16:25:02;;;;;;;6.65;4.05;;;;;;;29.93;39.64;100416.97;5075972;28;20123;-78
2022/05/19 16:27:28;;;;;;;9.43;4.15;;;;;;;29.87;39.67;100424.50;5074704;28;20537;-80
2022/05/19 16:29:54;;;;;;;6.47;4.05;;;;;;;29.78;39.00;100422.69;5072003;28;20052;-77
2022/05/19 16:32:22;;;;;;;7.47;4.30;;;;;;;29.73;39.50;100429.91;5071583;28;20032;-77
2022/05/19 16:34:49;;;;;;;8.95;4.40;;;;;;;29.51;40.02;100434.31;5072917;28;20033;-74
2022/05/19 16:37:21;;;;;;;7.45;4.75;;;;;;;29.60;39.74;100432.56;5071849;28;20039;-74